createdAt,value
2017-08-11T00:00:50.559Z,22.5
2017-08-11T00:01:53.007Z,22.4
2017-08-11T00:02:55.471Z,22.4
2017-08-11T00:03:58.273Z,22.4
2017-08-11T00:05:01.054Z,22.4
2017-08-11T00:06:03.843Z,22.4
2017-08-11T00:07:06.303Z,22.3
2017-08-11T00:08:08.761Z,22.3
2017-08-11T00:09:11.551Z,22.3
2017-08-11T00:10:14.336Z,22.3
2017-08-11T00:11:17.128Z,22.3
2017-08-11T00:12:19.927Z,22.3
2017-08-11T00:13:22.722Z,22.3
2017-08-11T00:14:25.161Z,22.3
2017-08-11T00:15:27.641Z,22.3
2017-08-11T00:16:30.101Z,22.3
2017-08-11T00:17:32.894Z,22.3
2017-08-11T00:18:35.369Z,22.2
2017-08-11T00:19:38.164Z,22.2
2017-08-11T00:20:40.952Z,22.2
2017-08-11T00:21:43.746Z,22.2
2017-08-11T00:22:46.207Z,22.3
2017-08-11T00:23:48.645Z,22.2
2017-08-11T00:24:51.444Z,22.2
2017-08-11T00:25:54.231Z,22.2
2017-08-11T00:26:56.704Z,22.2
2017-08-11T00:27:59.836Z,22.1
2017-08-11T00:29:02.617Z,22.1
2017-08-11T00:30:05.472Z,22.1
2017-08-11T00:31:08.619Z,22.1
2017-08-11T00:32:11.068Z,22.1
2017-08-11T00:33:13.549Z,22.1
2017-08-11T00:34:16.358Z,22.1
2017-08-11T00:35:19.149Z,22.1
2017-08-11T00:36:21.608Z,22.1
2017-08-11T00:37:24.062Z,22.1
2017-08-11T00:38:26.843Z,22.1
2017-08-11T00:39:29.304Z,22.1
2017-08-11T00:40:31.760Z,22.1
2017-08-11T00:41:34.548Z,22.1
2017-08-11T00:42:36.998Z,22.1
2017-08-11T00:43:39.444Z,22.1
2017-08-11T00:44:41.901Z,22.1
2017-08-11T00:45:44.370Z,22.1
2017-08-11T00:46:46.812Z,22.1
2017-08-11T00:47:49.607Z,22.1
2017-08-11T00:48:52.052Z,22.1
2017-08-11T00:49:55.191Z,22.1
2017-08-11T00:50:57.641Z,22.1
2017-08-11T00:52:00.440Z,22.1
2017-08-11T00:53:02.894Z,22.1
2017-08-11T00:54:05.341Z,22.1
2017-08-11T00:55:07.802Z,22.1
2017-08-11T00:56:10.255Z,22.1
2017-08-11T00:57:12.707Z,22
2017-08-11T00:58:15.158Z,22
2017-08-11T00:59:17.996Z,22
2017-08-11T01:00:20.439Z,22
2017-08-11T01:01:22.892Z,22
2017-08-11T01:02:26.029Z,22
2017-08-11T01:03:28.493Z,22
2017-08-11T01:04:31.280Z,22
2017-08-11T01:05:34.065Z,22
2017-08-11T01:06:36.517Z,22
2017-08-11T01:07:38.973Z,22
2017-08-11T01:08:41.761Z,22
2017-08-11T01:09:44.211Z,22
2017-08-11T01:10:47.046Z,22.1
2017-08-11T01:11:49.516Z,22.1
2017-08-11T01:12:52.318Z,22.1
2017-08-11T01:13:54.771Z,22.1
2017-08-11T01:14:57.933Z,22.1
2017-08-11T01:16:00.399Z,22.1
2017-08-11T01:17:03.872Z,22.1
2017-08-11T01:18:06.330Z,22.1
2017-08-11T01:19:08.781Z,22.1
2017-08-11T01:20:11.237Z,22.1
2017-08-11T01:21:14.044Z,22.1
2017-08-11T01:22:16.494Z,22.1
2017-08-11T01:23:19.304Z,22.1
2017-08-11T01:24:22.102Z,22.1
2017-08-11T01:25:24.555Z,22.1
2017-08-11T01:26:27.040Z,22.1
2017-08-11T01:27:29.493Z,22.1
2017-08-11T01:28:32.286Z,22.1
2017-08-11T01:29:34.749Z,22.1
2017-08-11T01:30:37.195Z,22.1
2017-08-11T01:31:39.649Z,22.1
2017-08-11T01:32:42.788Z,22.1
2017-08-11T01:33:45.235Z,22.1
2017-08-11T01:34:47.683Z,22.1
2017-08-11T01:35:51.173Z,22.1
2017-08-11T01:36:53.618Z,22.1
2017-08-11T01:37:56.744Z,22
2017-08-11T01:39:00.241Z,22
2017-08-11T01:40:03.367Z,22
2017-08-11T01:41:06.522Z,22
2017-08-11T01:42:08.990Z,22
2017-08-11T01:43:11.431Z,22
2017-08-11T01:44:14.232Z,22
2017-08-11T01:45:17.032Z,22
2017-08-11T01:46:19.493Z,22
2017-08-11T01:47:21.929Z,22
2017-08-11T01:48:24.382Z,22
2017-08-11T01:49:27.187Z,22
2017-08-11T01:50:29.981Z,22
2017-08-11T01:51:32.772Z,22
2017-08-11T01:52:35.221Z,22
2017-08-11T01:53:38.039Z,22
2017-08-11T01:54:40.838Z,22
2017-08-11T01:55:43.642Z,22
2017-08-11T01:56:46.078Z,22
2017-08-11T01:57:48.535Z,22
2017-08-11T01:58:50.991Z,22
2017-08-11T01:59:53.789Z,22
2017-08-11T02:00:56.255Z,21.9
2017-08-11T02:01:59.027Z,22
2017-08-11T02:03:01.487Z,22
2017-08-11T02:04:04.281Z,22
2017-08-11T02:05:07.072Z,21.9
2017-08-11T02:06:09.516Z,21.9
2017-08-11T02:07:11.965Z,22
2017-08-11T02:08:14.421Z,21.9
2017-08-11T02:09:16.894Z,21.9
2017-08-11T02:10:19.346Z,21.9
2017-08-11T02:11:21.786Z,21.9
2017-08-11T02:12:24.925Z,21.9
2017-08-11T02:13:27.725Z,21.9
2017-08-11T02:14:30.177Z,21.9
2017-08-11T02:15:32.979Z,21.9
2017-08-11T02:16:35.428Z,21.9
2017-08-11T02:17:37.881Z,21.9
2017-08-11T02:18:40.325Z,21.9
2017-08-11T02:19:42.784Z,21.9
2017-08-11T02:20:45.227Z,21.9
2017-08-11T02:21:48.019Z,21.9
2017-08-11T02:22:50.477Z,21.9
2017-08-11T02:23:52.940Z,21.9
2017-08-11T02:24:56.415Z,21.9
2017-08-11T02:25:58.859Z,21.9
2017-08-11T02:27:01.979Z,21.9
2017-08-11T02:28:04.796Z,21.9
2017-08-11T02:29:07.252Z,21.9
2017-08-11T02:30:10.045Z,21.9
2017-08-11T02:31:12.836Z,21.9
2017-08-11T02:32:15.627Z,21.9
2017-08-11T02:33:18.420Z,21.9
2017-08-11T02:34:20.879Z,21.9
2017-08-11T02:35:23.669Z,21.9
2017-08-11T02:36:26.122Z,21.9
2017-08-11T02:37:28.591Z,21.9
2017-08-11T02:38:31.039Z,21.9
2017-08-11T02:39:34.183Z,22
2017-08-11T02:40:36.974Z,22
2017-08-11T02:41:39.428Z,22
2017-08-11T02:42:41.900Z,22
2017-08-11T02:43:44.693Z,22
2017-08-11T02:44:47.136Z,22
2017-08-11T02:45:49.959Z,22
2017-08-11T02:46:52.748Z,22
2017-08-11T02:47:55.910Z,22
2017-08-11T02:48:58.705Z,22
2017-08-11T02:50:01.526Z,22
2017-08-11T02:51:04.331Z,22.1
2017-08-11T02:52:07.135Z,22.1
2017-08-11T02:53:09.594Z,22.1
2017-08-11T02:54:12.741Z,22.1
2017-08-11T02:55:15.184Z,22.1
2017-08-11T02:56:17.649Z,22.1
2017-08-11T02:57:20.440Z,22.1
2017-08-11T02:58:22.889Z,22.1
2017-08-11T02:59:25.364Z,22.1
2017-08-11T03:00:28.153Z,22.1
2017-08-11T03:01:30.609Z,22.1
2017-08-11T03:02:33.061Z,22.2
2017-08-11T03:03:35.849Z,22.1
2017-08-11T03:04:38.312Z,22.2
2017-08-11T03:05:41.102Z,22.2
2017-08-11T03:06:43.904Z,22.2
2017-08-11T03:07:46.359Z,22.1
2017-08-11T03:08:48.808Z,22.2
2017-08-11T03:09:51.598Z,22.2
2017-08-11T03:10:54.394Z,22.2
2017-08-11T03:11:56.850Z,22.2
2017-08-11T03:12:59.632Z,22.2
2017-08-11T03:14:02.086Z,22.1
2017-08-11T03:15:05.238Z,22.1
2017-08-11T03:16:08.054Z,22.1
2017-08-11T03:17:10.876Z,22.1
2017-08-11T03:18:13.332Z,22.1
2017-08-11T03:19:15.779Z,22.1
2017-08-11T03:20:18.562Z,22.1
2017-08-11T03:21:21.351Z,22.1
2017-08-11T03:22:23.802Z,22.2
2017-08-11T03:23:26.601Z,22.1
2017-08-11T03:24:29.057Z,22.2
2017-08-11T03:25:31.493Z,22.2
2017-08-11T03:26:34.316Z,22.2
2017-08-11T03:27:36.783Z,22.2
2017-08-11T03:28:40.244Z,22.2
2017-08-11T03:29:42.701Z,22.2
2017-08-11T03:30:45.509Z,22.2
2017-08-11T03:31:48.304Z,22.2
2017-08-11T03:32:50.753Z,22.2
2017-08-11T03:33:53.554Z,22.2
2017-08-11T03:34:55.994Z,22.3
2017-08-11T03:35:58.443Z,22.3
2017-08-11T03:37:00.895Z,22.2
2017-08-11T03:38:03.705Z,22.2
2017-08-11T03:39:06.832Z,22.2
2017-08-11T03:40:09.965Z,22.2
2017-08-11T03:41:12.430Z,22.2
2017-08-11T03:42:15.625Z,22.2
2017-08-11T03:43:18.073Z,22.2
2017-08-11T03:44:20.524Z,22.2
2017-08-11T03:45:23.647Z,22.2
2017-08-11T03:46:26.795Z,22.2
2017-08-11T03:47:29.239Z,22.2
2017-08-11T03:48:31.696Z,22.2
2017-08-11T03:49:34.497Z,22.2
2017-08-11T03:50:36.974Z,22.2
2017-08-11T03:51:39.758Z,22.2
2017-08-11T03:52:42.211Z,22.2
2017-08-11T03:53:44.666Z,22.2
2017-08-11T03:54:47.467Z,22.2
2017-08-11T03:55:50.301Z,22.1
2017-08-11T03:56:52.752Z,22.1
2017-08-11T03:57:55.202Z,22.1
2017-08-11T03:58:58.012Z,22.1
2017-08-11T04:00:00.790Z,22.1
2017-08-11T04:01:03.937Z,22.1
2017-08-11T04:02:06.392Z,22.1
2017-08-11T04:03:08.842Z,22.1
2017-08-11T04:04:11.300Z,22.1
2017-08-11T04:05:13.759Z,22.1
2017-08-11T04:06:16.545Z,22.1
2017-08-11T04:07:19.007Z,22.1
2017-08-11T04:08:21.785Z,22
2017-08-11T04:09:24.241Z,22.1
2017-08-11T04:10:27.038Z,22.1
2017-08-11T04:11:30.171Z,22.1
2017-08-11T04:12:32.957Z,22
2017-08-11T04:13:35.415Z,22
2017-08-11T04:14:37.862Z,22
2017-08-11T04:15:40.311Z,21.9
2017-08-11T04:16:42.763Z,21.9
2017-08-11T04:17:45.541Z,21.9
2017-08-11T04:18:48.007Z,21.9
2017-08-11T04:19:50.454Z,21.9
2017-08-11T04:20:53.236Z,21.9
2017-08-11T04:21:55.688Z,21.9
2017-08-11T04:22:58.159Z,21.9
2017-08-11T04:24:00.945Z,21.9
2017-08-11T04:25:03.395Z,21.8
2017-08-11T04:26:06.887Z,21.8
2017-08-11T04:27:09.334Z,21.8
2017-08-11T04:28:12.122Z,21.8
2017-08-11T04:29:14.620Z,21.9
2017-08-11T04:30:17.070Z,21.9
2017-08-11T04:31:19.869Z,21.9
2017-08-11T04:32:22.340Z,21.9
2017-08-11T04:33:24.822Z,21.9
2017-08-11T04:34:27.287Z,21.9
2017-08-11T04:35:29.745Z,21.9
2017-08-11T04:36:32.197Z,21.9
2017-08-11T04:37:34.994Z,22
2017-08-11T04:38:37.443Z,22
2017-08-11T04:39:39.891Z,22
2017-08-11T04:40:42.358Z,22
2017-08-11T04:41:45.146Z,22
2017-08-11T04:42:47.609Z,22
2017-08-11T04:43:50.091Z,22
2017-08-11T04:44:52.544Z,22
2017-08-11T04:45:55.691Z,22
2017-08-11T04:46:58.196Z,22
2017-08-11T04:48:00.649Z,22
2017-08-11T04:49:03.089Z,22
2017-08-11T04:50:05.892Z,22
2017-08-11T04:51:08.353Z,22
2017-08-11T04:52:10.818Z,22
2017-08-11T04:53:13.278Z,22
2017-08-11T04:54:15.744Z,22
2017-08-11T04:55:18.533Z,22
2017-08-11T04:56:21.357Z,22
2017-08-11T04:57:24.177Z,22
2017-08-11T04:58:26.972Z,22
2017-08-11T04:59:29.437Z,22
2017-08-11T05:00:32.221Z,22
2017-08-11T05:01:35.025Z,22
2017-08-11T05:02:38.177Z,22
2017-08-11T05:03:40.648Z,21.9
2017-08-11T05:04:43.098Z,21.9
2017-08-11T05:05:45.573Z,21.9
2017-08-11T05:06:48.022Z,21.9
2017-08-11T05:07:50.485Z,21.9
2017-08-11T05:08:53.621Z,21.9
2017-08-11T05:09:56.070Z,21.9
2017-08-11T05:10:59.177Z,21.9
2017-08-11T05:12:01.636Z,21.9
2017-08-11T05:13:05.165Z,21.9
2017-08-11T05:14:07.612Z,21.9
2017-08-11T05:15:10.111Z,21.9
2017-08-11T05:16:12.573Z,21.9
2017-08-11T05:17:15.707Z,21.9
2017-08-11T05:18:18.498Z,21.9
2017-08-11T05:19:20.952Z,21.9
2017-08-11T05:20:23.411Z,21.9
2017-08-11T05:21:25.887Z,21.8
2017-08-11T05:22:28.325Z,21.8
2017-08-11T05:23:31.115Z,21.8
2017-08-11T05:24:34.276Z,21.9
2017-08-11T05:25:36.731Z,21.8
2017-08-11T05:26:39.515Z,21.8
2017-08-11T05:27:42.306Z,21.8
2017-08-11T05:28:44.769Z,21.8
2017-08-11T05:29:47.586Z,21.8
2017-08-11T05:30:50.717Z,21.8
2017-08-11T05:31:53.837Z,21.8
2017-08-11T05:32:56.302Z,21.8
2017-08-11T05:33:58.791Z,21.7
2017-08-11T05:35:01.587Z,21.7
2017-08-11T05:36:04.044Z,21.7
2017-08-11T05:37:06.500Z,21.7
2017-08-11T05:38:08.958Z,21.7
2017-08-11T05:39:12.439Z,21.7
2017-08-11T05:40:14.888Z,21.7
2017-08-11T05:41:18.023Z,21.8
2017-08-11T05:42:20.819Z,21.8
2017-08-11T05:43:23.280Z,21.8
2017-08-11T05:44:26.406Z,21.8
2017-08-11T05:45:28.857Z,21.8
2017-08-11T05:46:32.010Z,21.8
2017-08-11T05:47:34.814Z,21.8
2017-08-11T05:48:37.587Z,21.9
2017-08-11T05:49:40.719Z,21.8
2017-08-11T05:50:43.513Z,21.9
2017-08-11T05:51:46.314Z,21.8
2017-08-11T05:52:49.123Z,21.8
2017-08-11T05:53:51.567Z,21.8
2017-08-11T05:54:54.367Z,21.8
2017-08-11T05:55:56.837Z,21.8
2017-08-11T05:56:59.283Z,21.8
2017-08-11T05:58:02.083Z,21.8
2017-08-11T05:59:04.554Z,21.8
2017-08-11T06:00:07.339Z,21.7
2017-08-11T06:01:09.797Z,21.8
2017-08-11T06:02:12.583Z,21.8
2017-08-11T06:03:15.379Z,21.7
2017-08-11T06:04:18.168Z,21.7
2017-08-11T06:05:20.632Z,21.7
2017-08-11T06:06:23.432Z,21.6
2017-08-11T06:07:25.912Z,21.6
2017-08-11T06:08:28.698Z,21.6
2017-08-11T06:09:31.146Z,21.5
2017-08-11T06:10:33.621Z,21.6
2017-08-11T06:11:36.072Z,21.6
2017-08-11T06:12:38.532Z,21.6
2017-08-11T06:13:40.989Z,21.6
2017-08-11T06:14:44.141Z,21.6
2017-08-11T06:15:47.266Z,21.5
2017-08-11T06:16:49.723Z,21.6
2017-08-11T06:17:52.508Z,21.6
2017-08-11T06:18:54.954Z,21.6
2017-08-11T06:19:57.753Z,21.6
2017-08-11T06:21:00.550Z,21.6
2017-08-11T06:22:03.678Z,21.6
2017-08-11T06:23:06.134Z,21.7
2017-08-11T06:24:09.273Z,21.7
2017-08-11T06:25:12.056Z,21.7
2017-08-11T06:26:14.845Z,21.7
2017-08-11T06:27:17.651Z,21.7
2017-08-11T06:28:20.097Z,21.7
2017-08-11T06:29:22.901Z,21.7
2017-08-11T06:30:25.355Z,21.8
2017-08-11T06:31:28.134Z,21.8
2017-08-11T06:32:30.583Z,21.8
2017-08-11T06:33:33.713Z,21.8
2017-08-11T06:34:36.160Z,21.8
2017-08-11T06:35:38.618Z,21.8
2017-08-11T06:36:41.741Z,21.9
2017-08-11T06:37:44.202Z,21.9
2017-08-11T06:38:46.659Z,21.9
2017-08-11T06:39:49.109Z,21.9
2017-08-11T06:40:51.909Z,21.9
2017-08-11T06:41:54.705Z,21.9
2017-08-11T06:42:57.831Z,21.9
2017-08-11T06:44:00.963Z,21.9
2017-08-11T06:45:04.433Z,21.9
2017-08-11T06:46:06.894Z,21.9
2017-08-11T06:47:09.692Z,21.9
2017-08-11T06:48:12.136Z,21.9
2017-08-11T06:49:14.926Z,22
2017-08-11T06:50:17.389Z,21.9
2017-08-11T06:51:20.533Z,21.9
2017-08-11T06:52:22.993Z,21.9
2017-08-11T06:53:25.778Z,22
2017-08-11T06:54:28.575Z,22
2017-08-11T06:55:31.039Z,22
2017-08-11T06:56:33.860Z,22
2017-08-11T06:57:36.317Z,22
2017-08-11T06:58:38.769Z,22
2017-08-11T06:59:41.235Z,22
2017-08-11T07:00:44.034Z,22
2017-08-11T07:01:46.487Z,22
2017-08-11T07:02:49.952Z,22
2017-08-11T07:03:52.408Z,22
2017-08-11T07:04:54.859Z,21.9
2017-08-11T07:05:57.309Z,21.9
2017-08-11T07:07:00.439Z,22
2017-08-11T07:08:03.582Z,22
2017-08-11T07:09:06.699Z,21.9
2017-08-11T07:10:09.865Z,21.9
2017-08-11T07:11:12.308Z,21.9
2017-08-11T07:12:14.758Z,21.9
2017-08-11T07:13:17.560Z,21.9
2017-08-11T07:14:20.017Z,21.9
2017-08-11T07:15:22.470Z,21.9
2017-08-11T07:16:24.927Z,21.9
2017-08-11T07:17:27.389Z,21.9
2017-08-11T07:18:30.194Z,21.9
2017-08-11T07:19:32.978Z,21.9
2017-08-11T07:20:35.450Z,21.9
2017-08-11T07:21:38.261Z,21.9
2017-08-11T07:22:40.706Z,21.9
2017-08-11T07:23:43.502Z,21.9
2017-08-11T07:24:45.951Z,21.9
2017-08-11T07:25:49.080Z,21.9
2017-08-11T07:26:52.257Z,21.9
2017-08-11T07:27:54.714Z,21.9
2017-08-11T07:28:57.169Z,21.9
2017-08-11T07:29:59.624Z,21.9
2017-08-11T07:31:02.062Z,21.9
2017-08-11T07:32:04.512Z,21.9
2017-08-11T07:33:07.347Z,21.9
2017-08-11T07:34:09.791Z,21.9
2017-08-11T07:35:12.248Z,21.9
2017-08-11T07:36:15.034Z,21.9
2017-08-11T07:37:17.827Z,21.9
2017-08-11T07:38:20.621Z,21.9
2017-08-11T07:39:23.411Z,21.8
2017-08-11T07:40:25.872Z,21.9
2017-08-11T07:41:28.324Z,21.8
2017-08-11T07:42:31.116Z,21.8
2017-08-11T07:43:33.910Z,21.8
2017-08-11T07:44:36.373Z,21.8
2017-08-11T07:45:39.171Z,21.8
2017-08-11T07:46:41.982Z,21.8
2017-08-11T07:47:44.421Z,21.8
2017-08-11T07:48:47.219Z,21.8
2017-08-11T07:49:50.351Z,21.8
2017-08-11T07:50:53.150Z,21.8
2017-08-11T07:51:55.601Z,21.8
2017-08-11T07:52:58.055Z,21.8
2017-08-11T07:54:00.507Z,21.8
2017-08-11T07:55:02.963Z,21.7
2017-08-11T07:56:05.419Z,21.8
2017-08-11T07:57:07.862Z,21.7
2017-08-11T07:58:10.307Z,21.7
2017-08-11T07:59:13.450Z,21.7
2017-08-11T08:00:16.244Z,21.7
2017-08-11T08:01:19.041Z,21.6
2017-08-11T08:02:21.487Z,21.6
2017-08-11T08:03:24.279Z,21.6
2017-08-11T08:04:27.069Z,21.6
2017-08-11T08:05:29.563Z,21.6
2017-08-11T08:06:32.451Z,21.5
2017-08-11T08:07:35.166Z,21.5
2017-08-11T08:08:38.222Z,21.5
2017-08-11T08:09:41.331Z,21.5
2017-08-11T08:10:44.354Z,21.4
2017-08-11T08:11:47.384Z,21.4
2017-08-11T08:12:50.475Z,21.4
2017-08-11T08:13:53.189Z,21.4
2017-08-11T08:14:55.907Z,21.4
2017-08-11T08:15:58.634Z,21.4
2017-08-11T08:17:01.688Z,21.4
2017-08-11T08:18:04.735Z,21.4
2017-08-11T08:19:07.440Z,21.5
2017-08-11T08:20:10.036Z,21.5
2017-08-11T08:21:12.513Z,21.5
2017-08-11T08:22:15.761Z,21.5
2017-08-11T08:23:18.910Z,21.5
2017-08-11T08:24:21.366Z,21.5
2017-08-11T08:25:23.808Z,21.5
2017-08-11T08:26:26.255Z,21.5
2017-08-11T08:27:29.057Z,21.6
2017-08-11T08:28:32.526Z,21.6
2017-08-11T08:29:35.009Z,21.7
2017-08-11T08:30:37.788Z,21.7
2017-08-11T08:31:40.244Z,21.7
2017-08-11T08:32:42.710Z,21.7
2017-08-11T08:33:45.503Z,21.8
2017-08-11T08:34:47.960Z,21.8
2017-08-11T08:35:50.764Z,21.8
2017-08-11T08:36:53.545Z,21.8
2017-08-11T08:37:56.329Z,21.8
2017-08-11T08:38:58.798Z,21.7
2017-08-11T08:40:01.241Z,21.8
2017-08-11T08:41:04.075Z,21.7
2017-08-11T08:42:06.864Z,21.7
2017-08-11T08:43:09.326Z,21.7
2017-08-11T08:44:12.137Z,21.7
2017-08-11T08:45:14.917Z,21.7
2017-08-11T08:46:17.718Z,21.7
2017-08-11T08:47:20.167Z,21.7
2017-08-11T08:48:22.951Z,21.7
2017-08-11T08:49:25.761Z,21.7
2017-08-11T08:50:28.577Z,21.7
2017-08-11T08:51:31.028Z,21.7
2017-08-11T08:52:33.849Z,21.7
2017-08-11T08:53:36.659Z,21.7
2017-08-11T08:54:39.455Z,21.7
2017-08-11T08:55:41.907Z,21.8
2017-08-11T08:56:44.712Z,21.8
2017-08-11T08:57:47.513Z,21.8
2017-08-11T08:58:50.000Z,21.8
2017-08-11T08:59:52.780Z,21.8
2017-08-11T09:00:55.921Z,21.8
2017-08-11T09:01:58.717Z,21.8
2017-08-11T09:03:01.190Z,21.9
2017-08-11T09:04:04.660Z,21.8
2017-08-11T09:05:07.109Z,21.8
2017-08-11T09:06:09.894Z,21.9
2017-08-11T09:07:12.367Z,21.9
2017-08-11T09:08:15.154Z,21.9
2017-08-11T09:09:17.987Z,21.9
2017-08-11T09:10:20.808Z,21.9
2017-08-11T09:11:23.627Z,21.9
2017-08-11T09:12:26.090Z,21.9
2017-08-11T09:13:28.882Z,21.9
2017-08-11T09:14:31.342Z,21.9
2017-08-11T09:15:34.139Z,21.9
2017-08-11T09:16:36.931Z,21.9
2017-08-11T09:17:39.719Z,21.9
2017-08-11T09:18:42.600Z,21.9
2017-08-11T09:19:45.043Z,21.9
2017-08-11T09:20:47.836Z,21.9
2017-08-11T09:21:50.294Z,21.9
2017-08-11T09:22:53.093Z,22
2017-08-11T09:23:55.562Z,22
2017-08-11T09:24:58.024Z,22
2017-08-11T09:26:00.822Z,22
2017-08-11T09:27:03.636Z,22
2017-08-11T09:28:06.428Z,22.1
2017-08-11T09:29:08.882Z,22.1
2017-08-11T09:30:11.334Z,22.1
2017-08-11T09:31:14.118Z,22.1
2017-08-11T09:32:16.911Z,22.1
2017-08-11T09:33:19.379Z,22.1
2017-08-11T09:34:22.164Z,22.1
2017-08-11T09:35:24.670Z,22.1
2017-08-11T09:36:27.862Z,22.1
2017-08-11T09:37:30.655Z,22.1
2017-08-11T09:38:33.462Z,22.1
2017-08-11T09:39:35.948Z,22.1
2017-08-11T09:40:38.729Z,22.1
2017-08-11T09:41:41.187Z,22.1
2017-08-11T09:42:43.635Z,22.1
2017-08-11T09:43:46.086Z,22.1
2017-08-11T09:44:48.523Z,22.1
2017-08-11T09:45:51.069Z,22.1
2017-08-11T09:46:53.529Z,22.1
2017-08-11T09:47:55.982Z,22.1
2017-08-11T09:48:58.775Z,22
2017-08-11T09:50:01.614Z,22
2017-08-11T09:51:04.409Z,22
2017-08-11T09:52:06.883Z,22
2017-08-11T09:53:10.007Z,21.9
2017-08-11T09:54:12.468Z,21.9
2017-08-11T09:55:15.259Z,21.9
2017-08-11T09:56:18.047Z,21.9
2017-08-11T09:57:20.864Z,21.9
2017-08-11T09:58:23.324Z,21.9
2017-08-11T09:59:26.118Z,21.9
2017-08-11T10:00:29.288Z,21.9
2017-08-11T10:01:31.777Z,21.9
2017-08-11T10:02:34.573Z,21.9
2017-08-11T10:03:37.037Z,21.9
2017-08-11T10:04:39.841Z,21.9
2017-08-11T10:05:42.650Z,22
2017-08-11T10:06:45.481Z,22
2017-08-11T10:07:48.284Z,21.9
2017-08-11T10:08:50.726Z,22
2017-08-11T10:09:53.861Z,22
2017-08-11T10:10:56.999Z,22
2017-08-11T10:12:00.134Z,22
2017-08-11T10:13:02.583Z,22
2017-08-11T10:14:05.049Z,22.1
2017-08-11T10:15:07.860Z,22.1
2017-08-11T10:16:10.305Z,22.1
2017-08-11T10:17:12.766Z,22.1
2017-08-11T10:18:15.573Z,22.1
2017-08-11T10:19:18.378Z,22.1
2017-08-11T10:20:21.184Z,22.2
2017-08-11T10:21:23.631Z,22.2
2017-08-11T10:22:26.419Z,22.2
2017-08-11T10:23:29.241Z,22.2
2017-08-11T10:24:31.705Z,22.2
2017-08-11T10:25:34.160Z,22.2
2017-08-11T10:26:36.955Z,22.3
2017-08-11T10:27:39.419Z,22.3
2017-08-11T10:28:41.872Z,22.3
2017-08-11T10:29:44.342Z,22.3
2017-08-11T10:30:47.143Z,22.3
2017-08-11T10:31:49.595Z,22.3
2017-08-11T10:32:52.066Z,22.3
2017-08-11T10:33:54.517Z,22.4
2017-08-11T10:34:56.974Z,22.3
2017-08-11T10:35:59.438Z,22.4
2017-08-11T10:37:02.226Z,22.4
2017-08-11T10:38:04.684Z,22.4
2017-08-11T10:39:07.139Z,22.5
2017-08-11T10:40:09.923Z,22.5
2017-08-11T10:41:12.721Z,22.5
2017-08-11T10:42:15.521Z,22.5
2017-08-11T10:43:18.664Z,22.5
2017-08-11T10:44:21.117Z,22.6
2017-08-11T10:45:23.583Z,22.6
2017-08-11T10:46:26.043Z,22.6
2017-08-11T10:47:28.492Z,22.6
2017-08-11T10:48:30.967Z,22.7
2017-08-11T10:49:33.416Z,22.7
2017-08-11T10:50:35.881Z,22.6
2017-08-11T10:51:38.674Z,22.6
2017-08-11T10:52:41.130Z,22.7
2017-08-11T10:53:43.925Z,22.6
2017-08-11T10:54:46.391Z,22.6
2017-08-11T10:55:49.187Z,22.7
2017-08-11T10:56:51.656Z,22.7
2017-08-11T10:57:54.442Z,22.7
2017-08-11T10:58:57.571Z,22.7
2017-08-11T11:00:00.018Z,22.7
2017-08-11T11:01:02.491Z,22.8
2017-08-11T11:02:05.315Z,22.8
2017-08-11T11:03:07.767Z,22.8
2017-08-11T11:04:10.218Z,22.8
2017-08-11T11:05:12.683Z,22.8
2017-08-11T11:06:15.146Z,22.8
2017-08-11T11:07:17.941Z,22.8
2017-08-11T11:08:20.724Z,22.7
2017-08-11T11:09:23.186Z,22.8
2017-08-11T11:10:25.646Z,22.7
2017-08-11T11:11:28.438Z,22.7
2017-08-11T11:12:30.892Z,22.7
2017-08-11T11:13:33.359Z,22.7
2017-08-11T11:14:35.805Z,22.7
2017-08-11T11:15:38.609Z,22.7
2017-08-11T11:16:41.414Z,22.7
2017-08-11T11:17:44.222Z,22.7
2017-08-11T11:18:46.683Z,22.7
2017-08-11T11:19:49.816Z,22.7
2017-08-11T11:20:52.590Z,22.7
2017-08-11T11:21:55.052Z,22.7
2017-08-11T11:22:57.507Z,22.7
2017-08-11T11:23:59.950Z,22.7
2017-08-11T11:25:03.423Z,22.7
2017-08-11T11:26:05.899Z,22.7
2017-08-11T11:27:08.353Z,22.8
2017-08-11T11:28:10.808Z,22.8
2017-08-11T11:29:13.617Z,22.8
2017-08-11T11:30:16.069Z,22.8
2017-08-11T11:31:18.514Z,22.8
2017-08-11T11:32:20.995Z,22.9
2017-08-11T11:33:23.778Z,22.9
2017-08-11T11:34:26.234Z,22.9
2017-08-11T11:35:28.693Z,22.9
2017-08-11T11:36:31.488Z,23
2017-08-11T11:37:33.948Z,22.9
2017-08-11T11:38:36.407Z,22.9
2017-08-11T11:39:38.872Z,23
2017-08-11T11:40:41.330Z,23
2017-08-11T11:41:43.785Z,23
2017-08-11T11:42:46.255Z,23
2017-08-11T11:43:48.708Z,23
2017-08-11T11:44:54.140Z,23
2017-08-11T11:45:56.751Z,23
2017-08-11T11:46:59.182Z,23
2017-08-11T11:48:01.643Z,23
2017-08-11T11:49:04.153Z,23
2017-08-11T11:50:07.017Z,23
2017-08-11T11:51:09.539Z,23
2017-08-11T11:52:12.059Z,23.1
2017-08-11T11:53:14.941Z,23.1
2017-08-11T11:54:17.573Z,23.1
2017-08-11T11:55:20.074Z,23.1
2017-08-11T11:56:22.935Z,23.1
2017-08-11T11:57:25.452Z,23.1
2017-08-11T11:58:28.293Z,23
2017-08-11T11:59:31.149Z,23.1
2017-08-11T12:00:34.001Z,23
2017-08-11T12:01:36.499Z,23
2017-08-11T12:02:39.356Z,23
2017-08-11T12:03:42.594Z,23
2017-08-11T12:04:45.100Z,23
2017-08-11T12:05:48.304Z,23
2017-08-11T12:06:50.815Z,23
2017-08-11T12:07:53.691Z,23
2017-08-11T12:08:56.536Z,23
2017-08-11T12:09:59.716Z,23
2017-08-11T12:11:02.234Z,23
2017-08-11T12:12:05.092Z,23
2017-08-11T12:13:07.607Z,23
2017-08-11T12:14:10.115Z,23
2017-08-11T12:15:13.655Z,23
2017-08-11T12:16:16.197Z,23
2017-08-11T12:17:19.098Z,22.9
2017-08-11T12:18:22.282Z,22.9
2017-08-11T12:19:24.805Z,22.9
2017-08-11T12:20:27.350Z,22.9
2017-08-11T12:21:29.890Z,22.9
2017-08-11T12:22:32.386Z,22.8
2017-08-11T12:23:35.054Z,22.9
2017-08-11T12:24:37.946Z,22.8
2017-08-11T12:25:40.793Z,22.8
2017-08-11T12:26:44.002Z,22.8
2017-08-11T12:27:46.555Z,22.9
2017-08-11T12:28:49.062Z,22.8
2017-08-11T12:29:51.937Z,22.8
2017-08-11T12:30:54.457Z,22.8
2017-08-11T12:31:56.972Z,22.8
2017-08-11T12:32:59.522Z,22.8
2017-08-11T12:34:02.378Z,22.8
2017-08-11T12:35:04.909Z,22.8
2017-08-11T12:36:07.711Z,22.8
2017-08-11T12:37:10.128Z,22.9
2017-08-11T12:38:12.560Z,22.8
2017-08-11T12:39:15.000Z,22.8
2017-08-11T12:40:17.425Z,22.8
2017-08-11T12:41:20.190Z,22.8
2017-08-11T12:42:22.960Z,22.8
2017-08-11T12:43:25.728Z,22.9
2017-08-11T12:44:28.486Z,22.9
2017-08-11T12:45:30.903Z,22.9
2017-08-11T12:46:33.336Z,22.9
2017-08-11T12:47:36.110Z,22.9
2017-08-11T12:48:39.226Z,22.8
2017-08-11T12:49:42.016Z,22.8
2017-08-11T12:50:44.780Z,22.8
2017-08-11T12:51:48.014Z,22.8
2017-08-11T12:52:50.821Z,22.9
2017-08-11T12:53:53.231Z,22.8
2017-08-11T12:54:55.665Z,22.8
2017-08-11T12:55:58.467Z,22.8
2017-08-11T12:57:01.333Z,22.8
2017-08-11T12:58:04.093Z,22.8
2017-08-11T12:59:07.008Z,22.8
2017-08-11T13:00:09.433Z,22.8
2017-08-11T13:01:12.060Z,22.8
2017-08-11T13:02:14.809Z,22.8
2017-08-11T13:03:17.231Z,22.8
2017-08-11T13:04:20.702Z,22.8
2017-08-11T13:05:23.670Z,22.8
2017-08-11T13:06:26.430Z,22.8
2017-08-11T13:07:29.227Z,22.8
2017-08-11T13:08:31.976Z,22.8
2017-08-11T13:09:34.399Z,22.8
2017-08-11T13:10:36.989Z,22.8
2017-08-11T13:11:39.415Z,22.8
2017-08-11T13:12:41.830Z,22.8
2017-08-11T13:13:44.764Z,22.8
2017-08-11T13:14:47.191Z,22.8
2017-08-11T13:15:50.048Z,22.8
2017-08-11T13:16:52.496Z,22.8
2017-08-11T13:17:55.253Z,22.8
2017-08-11T13:18:58.017Z,22.8
2017-08-11T13:20:00.455Z,22.7
2017-08-11T13:21:03.092Z,22.7
2017-08-11T13:22:05.930Z,22.7
2017-08-11T13:23:08.350Z,22.7
2017-08-11T13:24:10.803Z,22.7
2017-08-11T13:25:13.332Z,22.7
2017-08-11T13:26:15.756Z,22.7
2017-08-11T13:27:18.172Z,22.6
2017-08-11T13:28:20.696Z,22.6
2017-08-11T13:29:23.146Z,22.6
2017-08-11T13:30:25.588Z,22.6
2017-08-11T13:31:28.693Z,22.6
2017-08-11T13:32:31.443Z,22.7
2017-08-11T13:33:34.774Z,22.6
2017-08-11T13:34:37.552Z,22.6
2017-08-11T13:35:40.529Z,22.6
2017-08-11T13:36:43.468Z,22.6
2017-08-11T13:37:45.889Z,22.6
2017-08-11T13:38:48.315Z,22.6
2017-08-11T13:39:50.748Z,22.6
2017-08-11T13:40:53.293Z,22.6
2017-08-11T13:41:55.710Z,22.6
2017-08-11T13:42:58.130Z,22.5
2017-08-11T13:44:00.891Z,22.6
2017-08-11T13:45:03.453Z,22.5
2017-08-11T13:46:06.216Z,22.5
2017-08-11T13:47:09.069Z,22.5
2017-08-11T13:48:11.499Z,22.5
2017-08-11T13:49:14.056Z,22.5
2017-08-11T13:50:17.044Z,22.5
2017-08-11T13:51:19.464Z,22.4
2017-08-11T13:52:21.949Z,22.4
2017-08-11T13:53:24.696Z,22.5
2017-08-11T13:54:27.118Z,22.4
2017-08-11T13:55:29.908Z,22.4
2017-08-11T13:56:32.330Z,22.4
2017-08-11T13:57:34.991Z,22.4
2017-08-11T13:58:38.252Z,22.4
2017-08-11T13:59:40.666Z,22.4
2017-08-11T14:00:43.101Z,22.4
2017-08-11T14:01:45.661Z,22.4
2017-08-11T14:02:48.762Z,22.4
2017-08-11T14:03:51.405Z,22.4